sensor_id;sensor_type;location;lat;lon;timestamp;P1;durP1;ratioP1;P2;durP2;ratioP2
35743;SDS011;21867;52.012;4.324;2023-03-03T00:04:12;7.63;;;6.40;;
35743;SDS011;21867;52.012;4.324;2023-03-03T00:06:53;10.93;;;8.67;;
35743;SDS011;21867;52.012;4.324;2023-03-03T00:09:21;8.70;;;7.20;;
35743;SDS011;21867;52.012;4.324;2023-03-03T00:11:49;8.30;;;6.90;;
35743;SDS011;21867;52.012;4.324;2023-03-03T00:14:21;9.87;;;7.67;;
35743;SDS011;21867;52.012;4.324;2023-03-03T00:16:54;8.37;;;7.00;;
35743;SDS011;21867;52.012;4.324;2023-03-03T00:19:23;7.53;;;6.73;;
35743;SDS011;21867;52.012;4.324;2023-03-03T00:21:50;10.20;;;8.37;;
35743;SDS011;21867;52.012;4.324;2023-03-03T00:24:19;13.27;;;7.90;;
35743;SDS011;21867;52.012;4.324;2023-03-03T00:26:47;9.90;;;7.87;;
35743;SDS011;21867;52.012;4.324;2023-03-03T00:29:23;9.40;;;8.13;;
35743;SDS011;21867;52.012;4.324;2023-03-03T00:31:52;8.00;;;7.20;;
35743;SDS011;21867;52.012;4.324;2023-03-03T00:34:22;8.83;;;7.57;;
35743;SDS011;21867;52.012;4.324;2023-03-03T00:36:53;10.53;;;7.30;;
35743;SDS011;21867;52.012;4.324;2023-03-03T00:39:25;8.63;;;7.03;;
35743;SDS011;21867;52.012;4.324;2023-03-03T00:47:53;8.13;;;7.20;;
35743;SDS011;21867;52.012;4.324;2023-03-03T00:50:25;14.23;;;7.93;;
35743;SDS011;21867;52.012;4.324;2023-03-03T00:52:57;10.30;;;7.87;;
35743;SDS011;21867;52.012;4.324;2023-03-03T00:55:25;9.03;;;7.43;;
35743;SDS011;21867;52.012;4.324;2023-03-03T00:57:52;9.17;;;7.33;;
35743;SDS011;21867;52.012;4.324;2023-03-03T01:00:25;8.07;;;6.30;;
35743;SDS011;21867;52.012;4.324;2023-03-03T01:02:53;8.20;;;6.90;;
35743;SDS011;21867;52.012;4.324;2023-03-03T01:05:21;6.63;;;4.73;;
35743;SDS011;21867;52.012;4.324;2023-03-03T01:07:50;7.73;;;6.57;;
35743;SDS011;21867;52.012;4.324;2023-03-03T01:10:19;8.73;;;6.40;;
35743;SDS011;21867;52.012;4.324;2023-03-03T01:12:46;6.33;;;5.43;;
35743;SDS011;21867;52.012;4.324;2023-03-03T01:15:23;7.73;;;6.07;;
35743;SDS011;21867;52.012;4.324;2023-03-03T01:18:09;8.07;;;5.57;;
35743;SDS011;21867;52.012;4.324;2023-03-03T01:20:49;6.73;;;5.37;;
35743;SDS011;21867;52.012;4.324;2023-03-03T01:23:17;7.20;;;4.70;;
35743;SDS011;21867;52.012;4.324;2023-03-03T01:25:46;6.63;;;5.10;;
35743;SDS011;21867;52.012;4.324;2023-03-03T01:28:13;6.87;;;5.07;;
35743;SDS011;21867;52.012;4.324;2023-03-03T01:30:40;8.07;;;4.60;;
35743;SDS011;21867;52.012;4.324;2023-03-03T01:33:08;6.23;;;4.57;;
35743;SDS011;21867;52.012;4.324;2023-03-03T01:35:35;6.17;;;4.57;;
35743;SDS011;21867;52.012;4.324;2023-03-03T01:38:02;6.57;;;5.13;;
35743;SDS011;21867;52.012;4.324;2023-03-03T01:40:30;4.80;;;4.20;;
35743;SDS011;21867;52.012;4.324;2023-03-03T01:42:59;7.93;;;4.53;;
35743;SDS011;21867;52.012;4.324;2023-03-03T01:45:28;5.03;;;4.53;;
35743;SDS011;21867;52.012;4.324;2023-03-03T01:47:57;5.83;;;4.07;;
35743;SDS011;21867;52.012;4.324;2023-03-03T01:56:48;10.10;;;4.67;;
35743;SDS011;21867;52.012;4.324;2023-03-03T01:59:18;7.60;;;5.13;;
35743;SDS011;21867;52.012;4.324;2023-03-03T02:01:47;5.27;;;4.77;;
35743;SDS011;21867;52.012;4.324;2023-03-03T02:04:30;7.97;;;4.50;;
35743;SDS011;21867;52.012;4.324;2023-03-03T02:06:58;7.53;;;5.10;;
35743;SDS011;21867;52.012;4.324;2023-03-03T02:09:28;7.67;;;4.60;;
35743;SDS011;21867;52.012;4.324;2023-03-03T02:11:59;6.63;;;5.50;;
35743;SDS011;21867;52.012;4.324;2023-03-03T02:14:29;5.87;;;5.13;;
35743;SDS011;21867;52.012;4.324;2023-03-03T02:16:56;6.27;;;5.13;;
35743;SDS011;21867;52.012;4.324;2023-03-03T02:22:13;6.00;;;5.40;;
35743;SDS011;21867;52.012;4.324;2023-03-03T02:24:43;6.13;;;5.47;;
35743;SDS011;21867;52.012;4.324;2023-03-03T02:27:14;6.40;;;5.77;;
35743;SDS011;21867;52.012;4.324;2023-03-03T02:29:49;6.47;;;5.20;;
35743;SDS011;21867;52.012;4.324;2023-03-03T02:37:54;8.53;;;5.10;;
35743;SDS011;21867;52.012;4.324;2023-03-03T02:40:23;7.50;;;4.87;;
35743;SDS011;21867;52.012;4.324;2023-03-03T02:42:53;6.40;;;4.17;;
35743;SDS011;21867;52.012;4.324;2023-03-03T02:45:21;8.60;;;5.43;;
35743;SDS011;21867;52.012;4.324;2023-03-03T02:47:49;5.67;;;5.00;;
35743;SDS011;21867;52.012;4.324;2023-03-03T02:50:32;5.50;;;4.93;;
35743;SDS011;21867;52.012;4.324;2023-03-03T02:52:59;6.40;;;4.77;;
35743;SDS011;21867;52.012;4.324;2023-03-03T02:55:27;5.93;;;4.63;;
35743;SDS011;21867;52.012;4.324;2023-03-03T02:57:56;10.93;;;5.17;;
35743;SDS011;21867;52.012;4.324;2023-03-03T03:00:42;6.90;;;4.97;;
35743;SDS011;21867;52.012;4.324;2023-03-03T03:04:18;6.07;;;5.17;;
35743;SDS011;21867;52.012;4.324;2023-03-03T03:06:48;6.50;;;4.40;;
35743;SDS011;21867;52.012;4.324;2023-03-03T03:09:16;5.80;;;4.73;;
35743;SDS011;21867;52.012;4.324;2023-03-03T03:11:45;6.53;;;5.07;;
35743;SDS011;21867;52.012;4.324;2023-03-03T03:14:17;6.70;;;5.20;;
35743;SDS011;21867;52.012;4.324;2023-03-03T03:16:45;5.57;;;5.07;;
35743;SDS011;21867;52.012;4.324;2023-03-03T03:22:23;6.37;;;4.67;;
35743;SDS011;21867;52.012;4.324;2023-03-03T03:24:50;9.37;;;4.63;;
35743;SDS011;21867;52.012;4.324;2023-03-03T03:27:17;5.67;;;4.60;;
35743;SDS011;21867;52.012;4.324;2023-03-03T03:33:30;7.83;;;4.53;;
35743;SDS011;21867;52.012;4.324;2023-03-03T03:35:58;6.33;;;4.77;;
35743;SDS011;21867;52.012;4.324;2023-03-03T03:38:27;5.17;;;4.67;;
35743;SDS011;21867;52.012;4.324;2023-03-03T03:40:54;5.60;;;4.40;;
35743;SDS011;21867;52.012;4.324;2023-03-03T03:43:22;7.47;;;4.70;;
35743;SDS011;21867;52.012;4.324;2023-03-03T03:45:50;4.93;;;4.43;;
35743;SDS011;21867;52.012;4.324;2023-03-03T03:51:10;8.13;;;4.97;;
35743;SDS011;21867;52.012;4.324;2023-03-03T03:53:38;5.00;;;4.47;;
35743;SDS011;21867;52.012;4.324;2023-03-03T03:56:06;5.97;;;5.17;;
35743;SDS011;21867;52.012;4.324;2023-03-03T04:05:19;9.03;;;4.90;;
35743;SDS011;21867;52.012;4.324;2023-03-03T04:07:48;4.57;;;4.17;;
35743;SDS011;21867;52.012;4.324;2023-03-03T04:10:17;5.27;;;4.33;;
35743;SDS011;21867;52.012;4.324;2023-03-03T04:12:44;7.07;;;5.13;;
35743;SDS011;21867;52.012;4.324;2023-03-03T04:15:13;4.53;;;4.13;;
35743;SDS011;21867;52.012;4.324;2023-03-03T04:20:30;5.97;;;5.17;;
35743;SDS011;21867;52.012;4.324;2023-03-03T04:23:00;6.90;;;4.47;;
35743;SDS011;21867;52.012;4.324;2023-03-03T04:25:29;6.03;;;4.70;;
35743;SDS011;21867;52.012;4.324;2023-03-03T04:28:16;7.53;;;4.70;;
35743;SDS011;21867;52.012;4.324;2023-03-03T04:34:52;9.87;;;4.57;;
35743;SDS011;21867;52.012;4.324;2023-03-03T04:37:33;6.17;;;5.43;;
35743;SDS011;21867;52.012;4.324;2023-03-03T04:40:03;5.20;;;4.67;;
35743;SDS011;21867;52.012;4.324;2023-03-03T04:42:30;8.70;;;4.97;;
35743;SDS011;21867;52.012;4.324;2023-03-03T04:44:58;9.27;;;4.73;;
35743;SDS011;21867;52.012;4.324;2023-03-03T04:47:34;5.03;;;4.53;;
35743;SDS011;21867;52.012;4.324;2023-03-03T04:50:02;6.53;;;4.63;;
35743;SDS011;21867;52.012;4.324;2023-03-03T04:52:32;7.27;;;6.47;;
35743;SDS011;21867;52.012;4.324;2023-03-03T04:55:00;8.97;;;5.53;;
35743;SDS011;21867;52.012;4.324;2023-03-03T04:57:39;10.27;;;5.77;;
35743;SDS011;21867;52.012;4.324;2023-03-03T05:04:00;7.63;;;6.10;;
35743;SDS011;21867;52.012;4.324;2023-03-03T05:06:27;8.37;;;6.37;;
35743;SDS011;21867;52.012;4.324;2023-03-03T05:08:54;8.07;;;6.83;;
35743;SDS011;21867;52.012;4.324;2023-03-03T05:11:22;9.43;;;6.67;;
35743;SDS011;21867;52.012;4.324;2023-03-03T05:13:50;9.13;;;6.73;;
35743;SDS011;21867;52.012;4.324;2023-03-03T05:16:17;13.17;;;6.93;;
35743;SDS011;21867;52.012;4.324;2023-03-03T05:18:45;18.73;;;7.17;;
35743;SDS011;21867;52.012;4.324;2023-03-03T05:21:12;10.57;;;7.57;;
35743;SDS011;21867;52.012;4.324;2023-03-03T05:23:40;16.63;;;7.20;;
35743;SDS011;21867;52.012;4.324;2023-03-03T05:26:07;7.50;;;4.47;;
35743;SDS011;21867;52.012;4.324;2023-03-03T05:28:34;8.93;;;7.63;;
35743;SDS011;21867;52.012;4.324;2023-03-03T05:31:03;16.83;;;6.90;;
35743;SDS011;21867;52.012;4.324;2023-03-03T05:36:36;19.57;;;6.97;;
35743;SDS011;21867;52.012;4.324;2023-03-03T05:39:04;6.93;;;6.23;;
35743;SDS011;21867;52.012;4.324;2023-03-03T05:41:31;31.23;;;5.40;;
35743;SDS011;21867;52.012;4.324;2023-03-03T05:43:58;24.73;;;6.10;;
35743;SDS011;21867;52.012;4.324;2023-03-03T05:46:27;46.33;;;7.33;;
35743;SDS011;21867;52.012;4.324;2023-03-03T05:48:54;17.00;;;5.33;;
35743;SDS011;21867;52.012;4.324;2023-03-03T05:51:31;46.23;;;6.77;;
35743;SDS011;21867;52.012;4.324;2023-03-03T05:53:58;16.10;;;4.70;;
35743;SDS011;21867;52.012;4.324;2023-03-03T05:56:26;17.63;;;6.13;;
35743;SDS011;21867;52.012;4.324;2023-03-03T05:58:53;22.20;;;6.47;;
35743;SDS011;21867;52.012;4.324;2023-03-03T06:01:41;28.40;;;6.70;;
35743;SDS011;21867;52.012;4.324;2023-03-03T06:07:18;12.90;;;5.80;;
35743;SDS011;21867;52.012;4.324;2023-03-03T06:09:46;19.80;;;7.17;;
35743;SDS011;21867;52.012;4.324;2023-03-03T06:12:13;40.13;;;7.13;;
35743;SDS011;21867;52.012;4.324;2023-03-03T06:14:40;17.80;;;6.43;;
35743;SDS011;21867;52.012;4.324;2023-03-03T06:17:09;8.67;;;6.27;;
35743;SDS011;21867;52.012;4.324;2023-03-03T06:19:37;24.43;;;7.30;;
35743;SDS011;21867;52.012;4.324;2023-03-03T06:22:04;9.03;;;6.30;;
35743;SDS011;21867;52.012;4.324;2023-03-03T06:24:31;15.57;;;7.20;;
35743;SDS011;21867;52.012;4.324;2023-03-03T06:26:59;27.67;;;6.57;;
35743;SDS011;21867;52.012;4.324;2023-03-03T06:29:27;12.00;;;6.23;;
35743;SDS011;21867;52.012;4.324;2023-03-03T06:37:57;14.27;;;6.13;;
35743;SDS011;21867;52.012;4.324;2023-03-03T06:40:25;12.90;;;6.03;;
35743;SDS011;21867;52.012;4.324;2023-03-03T06:42:52;13.20;;;5.83;;
35743;SDS011;21867;52.012;4.324;2023-03-03T06:45:19;19.57;;;5.50;;
35743;SDS011;21867;52.012;4.324;2023-03-03T06:47:47;18.87;;;6.13;;
35743;SDS011;21867;52.012;4.324;2023-03-03T06:50:14;19.27;;;6.13;;
35743;SDS011;21867;52.012;4.324;2023-03-03T06:53:16;6.10;;;5.50;;
35743;SDS011;21867;52.012;4.324;2023-03-03T06:55:44;18.77;;;4.90;;
35743;SDS011;21867;52.012;4.324;2023-03-03T06:58:12;12.43;;;5.50;;
35743;SDS011;21867;52.012;4.324;2023-03-03T07:00:51;22.47;;;5.90;;
35743;SDS011;21867;52.012;4.324;2023-03-03T07:06:32;14.07;;;5.63;;
35743;SDS011;21867;52.012;4.324;2023-03-03T07:09:04;13.30;;;5.93;;
35743;SDS011;21867;52.012;4.324;2023-03-03T07:11:32;17.73;;;5.60;;
35743;SDS011;21867;52.012;4.324;2023-03-03T07:14:00;24.80;;;5.63;;
35743;SDS011;21867;52.012;4.324;2023-03-03T07:16:28;18.73;;;5.07;;
35743;SDS011;21867;52.012;4.324;2023-03-03T07:18:56;17.23;;;6.50;;
35743;SDS011;21867;52.012;4.324;2023-03-03T07:21:27;18.97;;;6.13;;
35743;SDS011;21867;52.012;4.324;2023-03-03T07:23:57;4.77;;;4.23;;
35743;SDS011;21867;52.012;4.324;2023-03-03T07:26:27;22.93;;;6.80;;
35743;SDS011;21867;52.012;4.324;2023-03-03T07:28:55;13.10;;;5.50;;
35743;SDS011;21867;52.012;4.324;2023-03-03T07:31:30;10.23;;;6.77;;
35743;SDS011;21867;52.012;4.324;2023-03-03T07:34:01;12.83;;;6.20;;
35743;SDS011;21867;52.012;4.324;2023-03-03T07:36:30;18.00;;;7.63;;
35743;SDS011;21867;52.012;4.324;2023-03-03T07:39:01;25.90;;;7.20;;
35743;SDS011;21867;52.012;4.324;2023-03-03T07:41:31;6.80;;;6.10;;
35743;SDS011;21867;52.012;4.324;2023-03-03T07:44:02;11.73;;;7.90;;
35743;SDS011;21867;52.012;4.324;2023-03-03T07:46:33;17.83;;;7.30;;
35743;SDS011;21867;52.012;4.324;2023-03-03T07:49:07;15.47;;;8.47;;
35743;SDS011;21867;52.012;4.324;2023-03-03T07:58:32;17.53;;;6.77;;
35743;SDS011;21867;52.012;4.324;2023-03-03T08:03:44;4.57;;;4.13;;
35743;SDS011;21867;52.012;4.324;2023-03-03T08:06:23;8.47;;;5.07;;
35743;SDS011;21867;52.012;4.324;2023-03-03T08:08:53;9.53;;;5.63;;
35743;SDS011;21867;52.012;4.324;2023-03-03T08:11:20;19.03;;;7.10;;
35743;SDS011;21867;52.012;4.324;2023-03-03T08:13:49;19.37;;;7.77;;
35743;SDS011;21867;52.012;4.324;2023-03-03T08:16:20;13.07;;;7.20;;
35743;SDS011;21867;52.012;4.324;2023-03-03T08:18:50;15.80;;;7.17;;
35743;SDS011;21867;52.012;4.324;2023-03-03T08:21:18;15.43;;;8.77;;
35743;SDS011;21867;52.012;4.324;2023-03-03T08:23:46;12.80;;;8.10;;
35743;SDS011;21867;52.012;4.324;2023-03-03T08:32:31;16.27;;;8.73;;
35743;SDS011;21867;52.012;4.324;2023-03-03T08:34:58;12.30;;;7.40;;
35743;SDS011;21867;52.012;4.324;2023-03-03T08:37:25;13.23;;;9.07;;
35743;SDS011;21867;52.012;4.324;2023-03-03T08:39:53;13.03;;;8.47;;
35743;SDS011;21867;52.012;4.324;2023-03-03T08:42:20;11.37;;;8.57;;
35743;SDS011;21867;52.012;4.324;2023-03-03T08:44:48;18.00;;;9.60;;
35743;SDS011;21867;52.012;4.324;2023-03-03T08:47:15;7.93;;;6.30;;
35743;SDS011;21867;52.012;4.324;2023-03-03T08:49:44;12.07;;;7.57;;
35743;SDS011;21867;52.012;4.324;2023-03-03T08:52:13;8.53;;;6.70;;
35743;SDS011;21867;52.012;4.324;2023-03-03T08:54:41;9.37;;;7.37;;
35743;SDS011;21867;52.012;4.324;2023-03-03T08:57:08;10.63;;;6.63;;
35743;SDS011;21867;52.012;4.324;2023-03-03T08:59:36;7.30;;;6.47;;
35743;SDS011;21867;52.012;4.324;2023-03-03T09:02:03;10.20;;;7.33;;
35743;SDS011;21867;52.012;4.324;2023-03-03T09:04:31;9.43;;;7.37;;
35743;SDS011;21867;52.012;4.324;2023-03-03T09:07:00;8.67;;;6.60;;
35743;SDS011;21867;52.012;4.324;2023-03-03T09:09:27;8.90;;;6.97;;
35743;SDS011;21867;52.012;4.324;2023-03-03T09:11:54;8.00;;;6.47;;
35743;SDS011;21867;52.012;4.324;2023-03-03T09:14:25;8.13;;;7.03;;
35743;SDS011;21867;52.012;4.324;2023-03-03T09:16:54;9.20;;;8.13;;
35743;SDS011;21867;52.012;4.324;2023-03-03T09:19:23;9.57;;;7.27;;
35743;SDS011;21867;52.012;4.324;2023-03-03T09:21:51;9.93;;;7.67;;
35743;SDS011;21867;52.012;4.324;2023-03-03T09:24:24;11.33;;;8.03;;
35743;SDS011;21867;52.012;4.324;2023-03-03T09:26:51;7.83;;;7.07;;
35743;SDS011;21867;52.012;4.324;2023-03-03T09:32:13;14.57;;;7.90;;
35743;SDS011;21867;52.012;4.324;2023-03-03T09:34:43;9.57;;;7.93;;
35743;SDS011;21867;52.012;4.324;2023-03-03T09:37:14;9.90;;;6.80;;
35743;SDS011;21867;52.012;4.324;2023-03-03T09:39:50;14.27;;;7.57;;
35743;SDS011;21867;52.012;4.324;2023-03-03T09:48:05;7.90;;;6.50;;
35743;SDS011;21867;52.012;4.324;2023-03-03T09:50:35;9.93;;;6.33;;
35743;SDS011;21867;52.012;4.324;2023-03-03T09:53:12;8.40;;;6.83;;
35743;SDS011;21867;52.012;4.324;2023-03-03T09:55:46;10.07;;;6.63;;
35743;SDS011;21867;52.012;4.324;2023-03-03T09:58:19;10.57;;;7.00;;
35743;SDS011;21867;52.012;4.324;2023-03-03T10:00:51;7.63;;;6.73;;
35743;SDS011;21867;52.012;4.324;2023-03-03T10:03:25;7.07;;;6.37;;
35743;SDS011;21867;52.012;4.324;2023-03-03T10:05:58;5.90;;;5.30;;
35743;SDS011;21867;52.012;4.324;2023-03-03T10:08:31;7.30;;;5.93;;
35743;SDS011;21867;52.012;4.324;2023-03-03T10:11:07;7.13;;;6.43;;
35743;SDS011;21867;52.012;4.324;2023-03-03T10:19:14;5.57;;;5.07;;
35743;SDS011;21867;52.012;4.324;2023-03-03T10:21:46;6.83;;;5.10;;
35743;SDS011;21867;52.012;4.324;2023-03-03T10:24:19;6.03;;;5.40;;
35743;SDS011;21867;52.012;4.324;2023-03-03T10:26:59;5.43;;;4.93;;
35743;SDS011;21867;52.012;4.324;2023-03-03T10:42:26;4.93;;;4.17;;
35743;SDS011;21867;52.012;4.324;2023-03-03T10:45:01;6.17;;;4.20;;
35743;SDS011;21867;52.012;4.324;2023-03-03T10:47:41;5.77;;;3.87;;
35743;SDS011;21867;52.012;4.324;2023-03-03T10:50:13;4.40;;;4.00;;
35743;SDS011;21867;52.012;4.324;2023-03-03T10:52:43;5.43;;;3.83;;
35743;SDS011;21867;52.012;4.324;2023-03-03T10:55:17;5.87;;;3.80;;
35743;SDS011;21867;52.012;4.324;2023-03-03T10:57:50;7.57;;;4.53;;
35743;SDS011;21867;52.012;4.324;2023-03-03T11:00:22;4.43;;;3.77;;
35743;SDS011;21867;52.012;4.324;2023-03-03T11:02:55;4.97;;;3.13;;
35743;SDS011;21867;52.012;4.324;2023-03-03T11:08:03;7.97;;;3.47;;
35743;SDS011;21867;52.012;4.324;2023-03-03T11:10:37;4.30;;;2.97;;
35743;SDS011;21867;52.012;4.324;2023-03-03T11:13:11;4.37;;;3.00;;
35743;SDS011;21867;52.012;4.324;2023-03-03T11:18:44;5.53;;;2.83;;
35743;SDS011;21867;52.012;4.324;2023-03-03T11:25:08;2.80;;;2.60;;
35743;SDS011;21867;52.012;4.324;2023-03-03T11:27:44;2.80;;;2.50;;
35743;SDS011;21867;52.012;4.324;2023-03-03T11:30:22;3.83;;;2.53;;
35743;SDS011;21867;52.012;4.324;2023-03-03T11:32:56;3.90;;;2.70;;
35743;SDS011;21867;52.012;4.324;2023-03-03T11:35:28;3.20;;;2.40;;
35743;SDS011;21867;52.012;4.324;2023-03-03T11:38:02;5.77;;;3.00;;
35743;SDS011;21867;52.012;4.324;2023-03-03T11:40:35;3.40;;;2.53;;
35743;SDS011;21867;52.012;4.324;2023-03-03T11:43:06;2.43;;;2.17;;
35743;SDS011;21867;52.012;4.324;2023-03-03T11:45:38;2.70;;;2.50;;
35743;SDS011;21867;52.012;4.324;2023-03-03T11:48:10;4.83;;;2.50;;
35743;SDS011;21867;52.012;4.324;2023-03-03T11:50:40;3.10;;;2.03;;
35743;SDS011;21867;52.012;4.324;2023-03-03T11:56:00;6.70;;;2.27;;
35743;SDS011;21867;52.012;4.324;2023-03-03T11:58:33;7.97;;;2.90;;
35743;SDS011;21867;52.012;4.324;2023-03-03T12:01:08;3.17;;;2.17;;
35743;SDS011;21867;52.012;4.324;2023-03-03T12:03:40;4.33;;;2.43;;
35743;SDS011;21867;52.012;4.324;2023-03-03T12:06:13;2.63;;;2.40;;
35743;SDS011;21867;52.012;4.324;2023-03-03T12:15:48;7.23;;;2.37;;
35743;SDS011;21867;52.012;4.324;2023-03-03T12:18:25;5.80;;;2.13;;
35743;SDS011;21867;52.012;4.324;2023-03-03T12:21:01;5.30;;;2.63;;
35743;SDS011;21867;52.012;4.324;2023-03-03T12:23:40;8.13;;;2.20;;
35743;SDS011;21867;52.012;4.324;2023-03-03T12:26:14;2.70;;;1.90;;
35743;SDS011;21867;52.012;4.324;2023-03-03T12:28:44;8.53;;;2.40;;
35743;SDS011;21867;52.012;4.324;2023-03-03T12:31:20;4.97;;;2.13;;
35743;SDS011;21867;52.012;4.324;2023-03-03T12:33:53;2.93;;;1.90;;
35743;SDS011;21867;52.012;4.324;2023-03-03T12:36:24;3.93;;;2.07;;
35743;SDS011;21867;52.012;4.324;2023-03-03T12:38:55;5.67;;;2.40;;
35743;SDS011;21867;52.012;4.324;2023-03-03T12:41:26;5.50;;;2.20;;
35743;SDS011;21867;52.012;4.324;2023-03-03T12:49:38;3.27;;;2.00;;
35743;SDS011;21867;52.012;4.324;2023-03-03T12:52:18;3.30;;;2.20;;
35743;SDS011;21867;52.012;4.324;2023-03-03T12:54:56;3.77;;;2.20;;
35743;SDS011;21867;52.012;4.324;2023-03-03T12:57:30;3.23;;;1.70;;
35743;SDS011;21867;52.012;4.324;2023-03-03T13:00:02;2.67;;;2.47;;
35743;SDS011;21867;52.012;4.324;2023-03-03T13:05:18;4.53;;;2.57;;
35743;SDS011;21867;52.012;4.324;2023-03-03T13:07:47;4.13;;;1.80;;
35743;SDS011;21867;52.012;4.324;2023-03-03T13:10:19;7.60;;;2.07;;
35743;SDS011;21867;52.012;4.324;2023-03-03T13:12:56;5.17;;;2.07;;
35743;SDS011;21867;52.012;4.324;2023-03-03T13:15:38;4.73;;;2.80;;
35743;SDS011;21867;52.012;4.324;2023-03-03T13:18:46;6.93;;;3.00;;
35743;SDS011;21867;52.012;4.324;2023-03-03T13:21:18;3.33;;;2.27;;
35743;SDS011;21867;52.012;4.324;2023-03-03T13:23:53;16.33;;;11.63;;
35743;SDS011;21867;52.012;4.324;2023-03-03T13:26:24;16.97;;;12.30;;
35743;SDS011;21867;52.012;4.324;2023-03-03T13:28:57;8.47;;;7.60;;
35743;SDS011;21867;52.012;4.324;2023-03-03T13:31:28;2.90;;;2.53;;
35743;SDS011;21867;52.012;4.324;2023-03-03T13:34:27;6.47;;;1.90;;
35743;SDS011;21867;52.012;4.324;2023-03-03T13:37:00;9.70;;;5.20;;
35743;SDS011;21867;52.012;4.324;2023-03-03T13:39:31;4.90;;;2.43;;
35743;SDS011;21867;52.012;4.324;2023-03-03T13:42:00;3.00;;;2.20;;
35743;SDS011;21867;52.012;4.324;2023-03-03T13:44:28;3.63;;;3.33;;
35743;SDS011;21867;52.012;4.324;2023-03-03T13:46:59;4.47;;;2.50;;
35743;SDS011;21867;52.012;4.324;2023-03-03T13:52:30;10.57;;;5.47;;
35743;SDS011;21867;52.012;4.324;2023-03-03T13:55:05;8.97;;;7.40;;
35743;SDS011;21867;52.012;4.324;2023-03-03T13:57:42;7.90;;;5.43;;
35743;SDS011;21867;52.012;4.324;2023-03-03T14:00:19;3.97;;;3.30;;
35743;SDS011;21867;52.012;4.324;2023-03-03T14:02:57;4.17;;;2.37;;
35743;SDS011;21867;52.012;4.324;2023-03-03T14:05:28;10.03;;;5.97;;
35743;SDS011;21867;52.012;4.324;2023-03-03T14:07:58;8.43;;;2.83;;
35743;SDS011;21867;52.012;4.324;2023-03-03T14:10:28;14.73;;;7.17;;
35743;SDS011;21867;52.012;4.324;2023-03-03T14:12:58;13.23;;;8.07;;
35743;SDS011;21867;52.012;4.324;2023-03-03T14:15:28;4.53;;;2.50;;
35743;SDS011;21867;52.012;4.324;2023-03-03T14:18:04;4.47;;;2.13;;
35743;SDS011;21867;52.012;4.324;2023-03-03T14:20:34;3.13;;;2.27;;
35743;SDS011;21867;52.012;4.324;2023-03-03T14:26:12;7.07;;;2.53;;
35743;SDS011;21867;52.012;4.324;2023-03-03T14:28:40;7.37;;;2.83;;
35743;SDS011;21867;52.012;4.324;2023-03-03T14:31:13;5.47;;;3.07;;
35743;SDS011;21867;52.012;4.324;2023-03-03T14:33:42;8.13;;;3.37;;
35743;SDS011;21867;52.012;4.324;2023-03-03T14:36:11;4.83;;;2.90;;
35743;SDS011;21867;52.012;4.324;2023-03-03T14:38:40;11.53;;;2.77;;
35743;SDS011;21867;52.012;4.324;2023-03-03T14:41:33;3.07;;;2.80;;
35743;SDS011;21867;52.012;4.324;2023-03-03T14:44:01;3.87;;;3.10;;
35743;SDS011;21867;52.012;4.324;2023-03-03T14:46:51;7.87;;;3.40;;
35743;SDS011;21867;52.012;4.324;2023-03-03T14:49:30;4.77;;;2.00;;
35743;SDS011;21867;52.012;4.324;2023-03-03T14:52:00;7.87;;;2.17;;
35743;SDS011;21867;52.012;4.324;2023-03-03T14:54:28;4.00;;;2.20;;
35743;SDS011;21867;52.012;4.324;2023-03-03T14:57:02;3.03;;;2.20;;
35743;SDS011;21867;52.012;4.324;2023-03-03T14:59:31;2.30;;;2.00;;
35743;SDS011;21867;52.012;4.324;2023-03-03T15:02:02;3.10;;;1.70;;
35743;SDS011;21867;52.012;4.324;2023-03-03T15:04:34;4.27;;;2.40;;
35743;SDS011;21867;52.012;4.324;2023-03-03T15:07:14;7.30;;;1.80;;
35743;SDS011;21867;52.012;4.324;2023-03-03T15:09:48;3.43;;;1.67;;
35743;SDS011;21867;52.012;4.324;2023-03-03T15:12:19;3.37;;;1.73;;
35743;SDS011;21867;52.012;4.324;2023-03-03T15:14:47;2.17;;;1.90;;
35743;SDS011;21867;52.012;4.324;2023-03-03T15:17:19;2.73;;;2.53;;
35743;SDS011;21867;52.012;4.324;2023-03-03T15:19:52;3.67;;;2.00;;
35743;SDS011;21867;52.012;4.324;2023-03-03T15:22:27;4.17;;;1.97;;
35743;SDS011;21867;52.012;4.324;2023-03-03T15:25:02;2.77;;;2.33;;
35743;SDS011;21867;52.012;4.324;2023-03-03T15:27:33;2.60;;;2.40;;
35743;SDS011;21867;52.012;4.324;2023-03-03T15:30:03;2.73;;;1.90;;
35743;SDS011;21867;52.012;4.324;2023-03-03T15:32:35;3.83;;;2.07;;
35743;SDS011;21867;52.012;4.324;2023-03-03T15:35:09;3.10;;;2.00;;
35743;SDS011;21867;52.012;4.324;2023-03-03T15:37:41;2.00;;;1.73;;
35743;SDS011;21867;52.012;4.324;2023-03-03T15:40:15;5.23;;;2.10;;
35743;SDS011;21867;52.012;4.324;2023-03-03T15:49:31;3.10;;;1.70;;
35743;SDS011;21867;52.012;4.324;2023-03-03T15:52:09;2.63;;;1.80;;
35743;SDS011;21867;52.012;4.324;2023-03-03T15:54:52;2.37;;;2.07;;
35743;SDS011;21867;52.012;4.324;2023-03-03T15:57:28;5.33;;;2.33;;
35743;SDS011;21867;52.012;4.324;2023-03-03T16:00:02;3.50;;;1.90;;
35743;SDS011;21867;52.012;4.324;2023-03-03T16:16:46;3.27;;;1.90;;
35743;SDS011;21867;52.012;4.324;2023-03-03T16:19:21;2.37;;;1.87;;
35743;SDS011;21867;52.012;4.324;2023-03-03T16:24:39;2.43;;;1.77;;
35743;SDS011;21867;52.012;4.324;2023-03-03T16:27:11;3.23;;;1.70;;
35743;SDS011;21867;52.012;4.324;2023-03-03T16:29:41;6.63;;;1.80;;
35743;SDS011;21867;52.012;4.324;2023-03-03T16:36:06;9.93;;;2.77;;
35743;SDS011;21867;52.012;4.324;2023-03-03T16:38:37;2.00;;;1.80;;
35743;SDS011;21867;52.012;4.324;2023-03-03T16:41:06;3.40;;;1.87;;
35743;SDS011;21867;52.012;4.324;2023-03-03T16:43:39;7.40;;;2.33;;
35743;SDS011;21867;52.012;4.324;2023-03-03T16:46:13;3.77;;;2.20;;
35743;SDS011;21867;52.012;4.324;2023-03-03T16:48:43;3.40;;;2.00;;
35743;SDS011;21867;52.012;4.324;2023-03-03T16:51:22;7.00;;;1.90;;
35743;SDS011;21867;52.012;4.324;2023-03-03T16:53:53;7.67;;;2.37;;
35743;SDS011;21867;52.012;4.324;2023-03-03T16:56:24;7.70;;;2.57;;
35743;SDS011;21867;52.012;4.324;2023-03-03T16:58:58;6.97;;;2.30;;
35743;SDS011;21867;52.012;4.324;2023-03-03T17:11:06;3.03;;;1.93;;
35743;SDS011;21867;52.012;4.324;2023-03-03T17:13:42;5.33;;;2.50;;
35743;SDS011;21867;52.012;4.324;2023-03-03T17:16:12;10.23;;;2.23;;
35743;SDS011;21867;52.012;4.324;2023-03-03T17:18:45;8.53;;;2.30;;
35743;SDS011;21867;52.012;4.324;2023-03-03T17:21:20;6.70;;;2.80;;
35743;SDS011;21867;52.012;4.324;2023-03-03T17:23:59;7.77;;;3.17;;
35743;SDS011;21867;52.012;4.324;2023-03-03T17:29:16;5.27;;;2.57;;
35743;SDS011;21867;52.012;4.324;2023-03-03T17:31:47;3.40;;;2.40;;
35743;SDS011;21867;52.012;4.324;2023-03-03T17:34:21;3.37;;;2.33;;
35743;SDS011;21867;52.012;4.324;2023-03-03T17:39:59;10.97;;;3.03;;
35743;SDS011;21867;52.012;4.324;2023-03-03T17:42:32;6.20;;;2.53;;
35743;SDS011;21867;52.012;4.324;2023-03-03T17:45:06;12.83;;;3.00;;
35743;SDS011;21867;52.012;4.324;2023-03-03T17:47:45;13.13;;;3.37;;
35743;SDS011;21867;52.012;4.324;2023-03-03T17:50:25;9.77;;;3.40;;
35743;SDS011;21867;52.012;4.324;2023-03-03T17:53:12;13.53;;;3.43;;
35743;SDS011;21867;52.012;4.324;2023-03-03T17:58:20;11.53;;;3.03;;
35743;SDS011;21867;52.012;4.324;2023-03-03T18:00:55;13.57;;;3.87;;
35743;SDS011;21867;52.012;4.324;2023-03-03T18:03:35;8.63;;;2.87;;
35743;SDS011;21867;52.012;4.324;2023-03-03T18:09:37;9.80;;;2.73;;
35743;SDS011;21867;52.012;4.324;2023-03-03T18:12:11;14.50;;;3.43;;
35743;SDS011;21867;52.012;4.324;2023-03-03T18:14:51;15.23;;;3.53;;
35743;SDS011;21867;52.012;4.324;2023-03-03T18:17:29;11.37;;;2.60;;
35743;SDS011;21867;52.012;4.324;2023-03-03T18:20:01;17.20;;;3.80;;
35743;SDS011;21867;52.012;4.324;2023-03-03T18:22:40;8.83;;;2.73;;